ΕΜΥ, Εθνική Μετεωρολογική Υπηρεσία - Δελτία Καιρού, Προγνώσεις

ΑΕΡΟΝΑΥΤΙΛΙΑ

GREEK AIRPORTS CODES

LGKY 201500Z 33008KT 9999 FEW020 08/01 Q1025=

EUROPEAN AIRPORTS CODES

EKCH 201720Z 20013KT 9999 OVC014 06/05 Q0994 BECMG BKN015=